createdAt,value
2018-09-08T00:02:11.972Z,24.30
2018-09-08T00:04:40.979Z,24.20
2018-09-08T00:07:15.378Z,24.20
2018-09-08T00:09:44.303Z,24.30
2018-09-08T00:12:13.285Z,24.20
2018-09-08T00:14:41.745Z,24.10
2018-09-08T00:17:15.979Z,24.30
2018-09-08T00:19:50.041Z,24.30
2018-09-08T00:22:24.263Z,24.10
2018-09-08T00:24:58.624Z,24.00
2018-09-08T00:27:32.055Z,24.00
2018-09-08T00:30:05.866Z,24.00
2018-09-08T00:32:35.675Z,24.10
2018-09-08T00:35:05.143Z,24.00
2018-09-08T00:37:34.110Z,24.00
2018-09-08T00:40:03.150Z,24.00
2018-09-08T00:42:32.219Z,23.80
2018-09-08T00:45:01.343Z,23.90
2018-09-08T00:47:30.389Z,23.90
2018-09-08T00:50:00.004Z,23.90
2018-09-08T00:52:29.082Z,23.70
2018-09-08T00:54:58.164Z,23.70
2018-09-08T00:57:27.061Z,23.80
2018-09-08T00:59:56.112Z,23.70
2018-09-08T01:02:25.100Z,23.70
2018-09-08T01:04:54.165Z,23.70
2018-09-08T01:07:28.576Z,23.70
2018-09-08T01:09:58.770Z,24.00
2018-09-08T01:12:28.795Z,24.10
2018-09-08T01:14:58.004Z,24.20
2018-09-08T01:17:26.992Z,24.00
2018-09-08T01:19:56.076Z,23.90
2018-09-08T01:22:25.392Z,23.80
2018-09-08T01:24:54.464Z,23.70
2018-09-08T01:27:23.589Z,23.80
2018-09-08T01:29:52.592Z,23.70
2018-09-08T01:32:21.661Z,23.60
2018-09-08T01:34:50.619Z,23.70
2018-09-08T01:37:19.484Z,23.80
2018-09-08T01:39:48.645Z,23.80
2018-09-08T01:42:17.725Z,23.70
2018-09-08T01:44:46.826Z,23.70
2018-09-08T01:47:15.704Z,23.40
2018-09-08T01:49:44.939Z,23.30
2018-09-08T01:52:13.788Z,23.50
2018-09-08T01:54:42.845Z,23.40
2018-09-08T01:57:11.891Z,23.40
2018-09-08T01:59:40.996Z,23.40
2018-09-08T02:02:09.992Z,23.50
2018-09-08T02:04:38.933Z,23.40
2018-09-08T02:07:07.871Z,23.40
2018-09-08T02:09:36.814Z,23.40
2018-09-08T02:12:05.866Z,23.30
2018-09-08T02:14:34.914Z,23.40
2018-09-08T02:17:03.857Z,23.50
2018-09-08T02:19:32.821Z,23.50
2018-09-08T02:22:01.763Z,23.40
2018-09-08T02:24:30.680Z,23.20
2018-09-08T02:26:59.365Z,23.30
2018-09-08T02:29:28.142Z,23.40
2018-09-08T02:31:56.997Z,23.50
2018-09-08T02:34:25.624Z,23.50
2018-09-08T02:36:54.971Z,23.50
2018-09-08T02:39:23.834Z,23.40
2018-09-08T02:41:52.875Z,23.50
2018-09-08T02:44:22.055Z,23.50
2018-09-08T02:46:50.851Z,23.50
2018-09-08T02:49:19.888Z,23.40
2018-09-08T02:51:47.188Z,23.30
2018-09-08T02:54:14.548Z,23.30
2018-09-08T02:56:41.788Z,23.20
2018-09-08T02:59:09.175Z,23.20
2018-09-08T03:01:36.801Z,23.20
2018-09-08T03:04:04.226Z,23.30
2018-09-08T03:06:31.557Z,23.20
2018-09-08T03:08:58.869Z,23.00
2018-09-08T03:11:26.460Z,23.00
2018-09-08T03:13:54.196Z,23.00
2018-09-08T03:16:21.382Z,23.10
2018-09-08T03:18:48.603Z,23.10
2018-09-08T03:21:16.050Z,22.90
2018-09-08T03:23:43.511Z,22.80
2018-09-08T03:26:10.759Z,22.90
2018-09-08T03:28:38.423Z,22.70
2018-09-08T03:31:05.709Z,22.90
2018-09-08T03:33:33.133Z,23.00
2018-09-08T03:36:00.483Z,23.00
2018-09-08T03:38:28.069Z,23.10
2018-09-08T03:40:55.497Z,23.10
2018-09-08T03:43:22.977Z,22.90
2018-09-08T03:45:50.557Z,22.80
2018-09-08T03:48:17.860Z,22.90
2018-09-08T03:50:45.233Z,22.70
2018-09-08T03:53:12.470Z,22.90
2018-09-08T03:55:39.853Z,23.00
2018-09-08T03:58:07.081Z,23.00
2018-09-08T04:00:34.550Z,23.00
2018-09-08T04:03:03.441Z,23.00
2018-09-08T04:05:32.235Z,23.20
2018-09-08T04:08:01.031Z,23.10
2018-09-08T04:10:29.923Z,23.10
2018-09-08T04:12:58.758Z,23.10
2018-09-08T04:15:27.881Z,23.00
2018-09-08T04:17:57.088Z,23.00
2018-09-08T04:20:26.055Z,23.00
2018-09-08T04:22:55.062Z,23.00
2018-09-08T04:25:23.946Z,22.90
2018-09-08T04:27:53.090Z,23.00
2018-09-08T04:30:22.180Z,23.00
2018-09-08T04:32:51.182Z,23.00
2018-09-08T04:35:20.170Z,23.10
2018-09-08T04:37:49.114Z,23.10
2018-09-08T04:40:17.864Z,23.00
2018-09-08T04:42:46.690Z,22.90
2018-09-08T04:45:15.634Z,22.80
2018-09-08T04:47:44.852Z,22.80
2018-09-08T04:50:14.027Z,23.00
2018-09-08T04:52:42.889Z,23.10
2018-09-08T04:55:11.805Z,23.00
2018-09-08T04:57:40.707Z,23.00
2018-09-08T05:00:09.956Z,23.20
2018-09-08T05:02:39.092Z,23.30
2018-09-08T05:05:08.152Z,23.30
2018-09-08T05:07:37.039Z,23.30
2018-09-08T05:10:06.303Z,23.40
2018-09-08T05:12:35.367Z,23.30
2018-09-08T05:15:04.593Z,23.50
2018-09-08T05:17:33.766Z,23.50
2018-09-08T05:20:02.751Z,23.60
2018-09-08T05:22:31.751Z,23.70
2018-09-08T05:25:00.925Z,23.90
2018-09-08T05:27:29.892Z,23.90
2018-09-08T05:29:58.672Z,24.00
2018-09-08T05:32:27.719Z,23.90
2018-09-08T05:34:56.382Z,23.90
2018-09-08T05:37:25.557Z,23.60
2018-09-08T05:39:54.602Z,23.80
2018-09-08T05:42:23.443Z,23.90
2018-09-08T05:45:01.675Z,23.90
2018-09-08T05:47:30.984Z,24.10
2018-09-08T05:49:59.813Z,24.10
2018-09-08T05:52:28.878Z,24.40
2018-09-08T05:54:57.943Z,24.40
2018-09-08T05:57:26.915Z,24.40
2018-09-08T05:59:55.650Z,24.60
2018-09-08T06:02:24.566Z,24.80
2018-09-08T06:04:53.348Z,24.80
2018-09-08T06:07:22.021Z,24.90
2018-09-08T06:09:50.876Z,25.00
2018-09-08T06:12:19.618Z,25.30
2018-09-08T06:14:48.357Z,25.40
2018-09-08T06:17:17.123Z,25.50
2018-09-08T06:19:45.950Z,25.60
2018-09-08T06:22:14.790Z,25.70
2018-09-08T06:24:43.525Z,26.70
2018-09-08T06:27:12.469Z,27.60
2018-09-08T06:29:41.168Z,28.40
2018-09-08T06:32:09.937Z,28.80
2018-09-08T06:34:38.631Z,29.50
2018-09-08T06:37:07.330Z,29.90
2018-09-08T06:39:45.860Z,30.50
2018-09-08T06:42:49.902Z,31.40
2018-09-08T06:45:18.793Z,32.00
2018-09-08T06:47:47.634Z,32.60
2018-09-08T06:50:16.231Z,33.00
2018-09-08T06:52:45.008Z,33.40
2018-09-08T06:55:13.704Z,33.50
2018-09-08T06:57:42.819Z,33.20
2018-09-08T07:00:11.597Z,33.40
2018-09-08T07:02:40.464Z,34.10
2018-09-08T07:05:09.279Z,34.50
2018-09-08T07:07:38.125Z,34.60
2018-09-08T07:10:06.931Z,34.80
2018-09-08T07:12:35.719Z,34.90
2018-09-08T07:15:04.924Z,35.00
2018-09-08T07:17:33.867Z,34.80
2018-09-08T07:20:02.630Z,34.50
2018-09-08T07:22:31.782Z,34.30
2018-09-08T07:25:00.541Z,34.60
2018-09-08T07:27:29.350Z,34.70
2018-09-08T07:29:58.142Z,34.20
2018-09-08T07:32:27.285Z,34.30
2018-09-08T07:34:55.975Z,33.90
2018-09-08T07:37:24.752Z,32.80
2018-09-08T07:39:53.397Z,32.70
2018-09-08T07:42:22.387Z,32.00
2018-09-08T07:44:51.414Z,31.40
2018-09-08T07:47:20.184Z,31.40
2018-09-08T07:49:48.940Z,31.10
2018-09-08T07:52:18.054Z,31.80
2018-09-08T07:54:46.819Z,31.50
2018-09-08T07:57:15.622Z,31.80
2018-09-08T07:59:44.517Z,32.30
2018-09-08T08:02:13.210Z,32.30
2018-09-08T08:04:41.796Z,32.50
2018-09-08T08:07:14.091Z,32.90
2018-09-08T08:09:44.170Z,31.90
2018-09-08T08:12:13.211Z,32.30
2018-09-08T08:14:41.900Z,31.70
2018-09-08T08:17:10.754Z,31.30
2018-09-08T08:19:39.546Z,31.10
2018-09-08T08:22:08.366Z,31.30
2018-09-08T08:24:37.209Z,31.10
2018-09-08T08:27:05.906Z,30.60
2018-09-08T08:29:34.989Z,30.40
2018-09-08T08:32:03.783Z,30.10
2018-09-08T08:34:32.424Z,30.60
2018-09-08T08:37:01.494Z,31.30
2018-09-08T08:39:30.311Z,31.00
2018-09-08T08:41:59.072Z,31.50
2018-09-08T08:44:27.853Z,31.90
2018-09-08T08:46:56.526Z,31.20
2018-09-08T08:49:25.409Z,31.10
2018-09-08T08:52:04.843Z,31.30
2018-09-08T08:54:39.305Z,31.20
2018-09-08T08:57:08.154Z,31.90
2018-09-08T08:59:36.911Z,30.90
2018-09-08T09:02:05.820Z,30.90
2018-09-08T09:04:34.630Z,30.90
2018-09-08T09:07:03.397Z,30.80
2018-09-08T09:09:32.173Z,31.30
2018-09-08T09:12:01.173Z,31.40
2018-09-08T09:14:30.315Z,30.40
2018-09-08T09:16:58.745Z,30.20
2018-09-08T09:19:40.644Z,30.10
2018-09-08T09:22:21.112Z,29.80
2018-09-08T09:25:09.255Z,29.80
2018-09-08T09:27:42.351Z,29.80
2018-09-08T09:30:11.454Z,30.70
2018-09-08T09:32:40.178Z,30.20
2018-09-08T09:35:10.231Z,30.10
2018-09-08T09:37:38.704Z,30.10
2018-09-08T09:40:08.534Z,30.30
2018-09-08T09:42:37.408Z,31.20
2018-09-08T09:45:06.691Z,31.40
2018-09-08T09:47:35.453Z,31.90
2018-09-08T09:50:04.608Z,31.80
2018-09-08T09:52:33.391Z,31.80
2018-09-08T09:55:02.339Z,32.40
2018-09-08T09:57:31.123Z,32.30
2018-09-08T10:00:00.069Z,32.20
2018-09-08T10:02:38.784Z,32.30
2018-09-08T10:05:09.615Z,32.60
2018-09-08T10:07:38.411Z,32.60
2018-09-08T10:10:08.572Z,31.70
2018-09-08T10:12:37.494Z,30.80
2018-09-08T10:15:06.713Z,31.00
2018-09-08T10:17:35.615Z,31.10
2018-09-08T10:20:05.727Z,31.40
2018-09-08T10:22:34.613Z,31.40
2018-09-08T10:25:12.214Z,31.50
2018-09-08T10:27:41.416Z,32.30
2018-09-08T10:30:10.833Z,32.00
2018-09-08T10:32:40.129Z,31.80
2018-09-08T10:35:09.110Z,31.80
2018-09-08T10:37:37.982Z,32.00
2018-09-08T10:52:48.248Z,32.00
2018-09-08T10:55:17.032Z,32.40
2018-09-08T10:57:46.095Z,33.00
2018-09-08T11:00:15.629Z,33.20
2018-09-08T11:02:44.663Z,32.90
2018-09-08T11:05:13.405Z,33.00
2018-09-08T11:07:42.217Z,32.90
2018-09-08T11:10:11.101Z,34.00
2018-09-08T11:12:39.876Z,34.50
2018-09-08T11:15:09.701Z,33.50
2018-09-08T11:17:38.424Z,33.30
2018-09-08T11:20:07.906Z,33.40
2018-09-08T11:22:36.767Z,34.40
2018-09-08T11:25:05.616Z,34.50
2018-09-08T11:27:34.458Z,34.80
2018-09-08T11:30:03.317Z,35.40
2018-09-08T11:32:32.230Z,35.60
2018-09-08T11:35:00.944Z,34.80
2018-09-08T11:37:29.802Z,34.30
2018-09-08T11:39:58.646Z,34.50
2018-09-08T11:42:27.479Z,34.40
2018-09-08T11:44:56.369Z,33.30
2018-09-08T11:47:25.364Z,32.40
2018-09-08T11:49:54.099Z,32.50
2018-09-08T11:52:22.938Z,32.20
2018-09-08T11:54:51.757Z,32.10
2018-09-08T11:57:20.718Z,31.90
2018-09-08T11:59:49.552Z,31.50
2018-09-08T12:02:18.274Z,31.00
2018-09-08T12:04:47.105Z,30.50
2018-09-08T12:07:15.809Z,30.30
2018-09-08T12:09:44.303Z,30.20
2018-09-08T12:12:13.380Z,30.20
2018-09-08T12:14:42.350Z,30.40
2018-09-08T12:17:11.166Z,30.80
2018-09-08T12:19:40.121Z,30.80
2018-09-08T12:22:09.020Z,30.60
2018-09-08T12:24:38.141Z,30.60
2018-09-08T12:27:06.936Z,31.50
2018-09-08T12:29:35.780Z,32.10
2018-09-08T12:32:04.497Z,32.70
2018-09-08T12:34:33.664Z,33.50
2018-09-08T12:37:02.562Z,33.80
2018-09-08T12:39:31.616Z,33.50
2018-09-08T12:42:00.598Z,33.70
2018-09-08T12:44:29.571Z,33.60
2018-09-08T12:46:58.429Z,33.70
2018-09-08T12:49:27.316Z,33.00
2018-09-08T12:51:56.121Z,32.60
2018-09-08T12:54:24.813Z,32.70
2018-09-08T12:56:53.470Z,32.80
2018-09-08T12:59:22.227Z,32.60
2018-09-08T13:01:51.079Z,32.20
2018-09-08T13:04:19.951Z,31.40
2018-09-08T13:06:48.722Z,31.50
2018-09-08T13:09:17.514Z,31.00
2018-09-08T13:11:46.345Z,31.90
2018-09-08T13:14:15.201Z,31.90
2018-09-08T13:16:44.035Z,32.50
2018-09-08T13:19:12.864Z,32.40
2018-09-08T13:21:41.537Z,32.40
2018-09-08T13:24:10.513Z,32.30
2018-09-08T13:26:39.199Z,32.50
2018-09-08T13:29:08.279Z,32.40
2018-09-08T13:31:36.993Z,31.80
2018-09-08T13:34:05.824Z,31.40
2018-09-08T13:36:34.590Z,31.70
2018-09-08T13:39:03.598Z,31.30
2018-09-08T13:41:32.570Z,31.00
2018-09-08T13:44:01.255Z,31.00
2018-09-08T13:46:30.477Z,31.10
2018-09-08T13:48:58.961Z,31.40
2018-09-08T13:51:27.725Z,31.50
2018-09-08T13:53:56.600Z,30.90
2018-09-08T13:56:25.604Z,30.50
2018-09-08T13:58:54.341Z,30.70
2018-09-08T14:01:23.387Z,30.50
2018-09-08T14:03:52.111Z,30.40
2018-09-08T14:06:21.180Z,30.60
2018-09-08T14:08:50.055Z,30.80
2018-09-08T14:11:18.874Z,30.80
2018-09-08T14:13:47.732Z,30.50
2018-09-08T14:16:16.644Z,30.40
2018-09-08T14:18:45.358Z,30.40
2018-09-08T14:21:14.207Z,30.30
2018-09-08T14:23:43.480Z,30.60
2018-09-08T14:26:13.568Z,30.60
2018-09-08T14:28:42.574Z,30.40
2018-09-08T14:31:11.471Z,30.60
2018-09-08T14:33:40.389Z,30.50
2018-09-08T14:36:09.589Z,30.60
2018-09-08T14:38:38.477Z,30.40
2018-09-08T14:41:16.266Z,30.30
2018-09-08T14:43:45.273Z,30.30
2018-09-08T14:46:14.184Z,29.80
2018-09-08T14:48:43.163Z,30.10
2018-09-08T14:51:11.893Z,30.10
2018-09-08T14:53:40.662Z,30.10
2018-09-08T14:56:09.427Z,30.40
2018-09-08T14:58:38.218Z,30.10
2018-09-08T15:01:06.925Z,29.70
2018-09-08T15:03:35.878Z,29.20
2018-09-08T15:06:04.676Z,29.20
2018-09-08T15:08:33.762Z,28.90
2018-09-08T15:11:02.516Z,28.80
2018-09-08T15:13:31.495Z,29.10
2018-09-08T15:16:00.407Z,29.10
2018-09-08T15:18:29.378Z,28.90
2018-09-08T15:20:58.219Z,29.00
2018-09-08T15:23:27.016Z,28.90
2018-09-08T15:25:55.736Z,28.90
2018-09-08T15:28:24.609Z,28.90
2018-09-08T15:30:53.777Z,29.00
2018-09-08T15:33:22.568Z,28.80
2018-09-08T15:35:51.459Z,28.90
2018-09-08T15:38:20.260Z,29.00
2018-09-08T15:40:49.128Z,28.90
2018-09-08T15:43:17.610Z,29.10
2018-09-08T15:45:46.494Z,29.10
2018-09-08T15:48:15.299Z,29.00
2018-09-08T15:50:44.020Z,29.00
2018-09-08T15:53:12.761Z,28.90
2018-09-08T15:55:41.517Z,28.80
2018-09-08T15:58:10.170Z,28.70
2018-09-08T16:00:39.026Z,28.90
2018-09-08T16:03:07.810Z,28.80
2018-09-08T16:05:36.602Z,28.60
2018-09-08T16:08:06.001Z,28.60
2018-09-08T16:10:37.158Z,28.60
2018-09-08T16:13:06.894Z,28.40
2018-09-08T16:15:35.964Z,28.50
2018-09-08T16:18:05.005Z,28.60
2018-09-08T16:20:33.975Z,28.50
2018-09-08T16:23:02.728Z,28.60
2018-09-08T16:25:31.385Z,28.40
2018-09-08T16:28:00.116Z,28.00
2018-09-08T16:30:28.839Z,28.20
2018-09-08T16:32:57.665Z,28.10
2018-09-08T16:35:26.353Z,27.90
2018-09-08T16:37:55.247Z,27.80
2018-09-08T16:40:24.133Z,27.80
2018-09-08T16:42:52.953Z,27.90
2018-09-08T16:45:21.643Z,27.80
2018-09-08T16:47:50.447Z,27.80
2018-09-08T16:50:19.188Z,27.60
2018-09-08T16:52:48.014Z,27.40
2018-09-08T16:55:16.756Z,27.40
2018-09-08T16:57:45.648Z,27.30
2018-09-08T17:00:14.856Z,27.30
2018-09-08T17:02:43.692Z,27.40
2018-09-08T17:05:12.453Z,27.30
2018-09-08T17:07:41.310Z,27.20
2018-09-08T17:10:10.098Z,27.20
2018-09-08T17:12:38.868Z,27.00
2018-09-08T17:15:08.179Z,27.00
2018-09-08T17:17:36.972Z,27.00
2018-09-08T17:20:06.068Z,27.00
2018-09-08T17:22:34.970Z,26.90
2018-09-08T17:25:03.726Z,26.80
2018-09-08T17:27:32.636Z,26.80
2018-09-08T17:30:01.527Z,26.90
2018-09-08T17:32:30.336Z,27.00
2018-09-08T17:34:59.112Z,27.10
2018-09-08T17:37:27.909Z,27.10
2018-09-08T17:39:56.616Z,27.00
2018-09-08T17:42:25.485Z,27.00
2018-09-08T17:44:54.120Z,26.70
2018-09-08T17:47:23.108Z,26.60
2018-09-08T17:49:51.909Z,26.50
2018-09-08T17:52:20.930Z,26.60
2018-09-08T17:54:49.633Z,26.60
2018-09-08T17:57:18.462Z,26.60
2018-09-08T17:59:47.313Z,26.60
2018-09-08T18:02:16.270Z,26.50
2018-09-08T18:04:45.169Z,26.60
2018-09-08T18:07:15.289Z,26.70
2018-09-08T18:09:44.283Z,26.70
2018-09-08T18:12:12.966Z,26.70
2018-09-08T18:14:42.061Z,26.70
2018-09-08T18:17:11.401Z,26.60
2018-09-08T18:19:40.089Z,26.20
2018-09-08T18:22:09.244Z,26.30
2018-09-08T18:24:37.953Z,26.40
2018-09-08T18:27:06.716Z,26.40
2018-09-08T18:29:36.445Z,26.50
2018-09-08T18:32:05.605Z,26.20
2018-09-08T18:34:34.727Z,26.50
2018-09-08T18:37:03.482Z,26.70
2018-09-08T18:39:32.400Z,26.60
2018-09-08T18:42:01.321Z,26.70
2018-09-08T18:44:30.273Z,26.60
2018-09-08T18:46:59.231Z,26.60
2018-09-08T18:49:28.064Z,26.70
2018-09-08T18:51:56.869Z,26.70
2018-09-08T18:54:25.555Z,26.70
2018-09-08T18:56:54.336Z,26.70
2018-09-08T18:59:23.110Z,26.70
2018-09-08T19:01:52.025Z,26.70
2018-09-08T19:04:20.816Z,26.50
2018-09-08T19:06:49.805Z,26.40
2018-09-08T19:09:18.670Z,26.20
2018-09-08T19:11:47.457Z,26.30
2018-09-08T19:14:21.601Z,26.30
2018-09-08T19:16:50.667Z,26.30
2018-09-08T19:19:19.398Z,26.40
2018-09-08T19:21:48.243Z,26.30
2018-09-08T19:24:22.451Z,26.30
2018-09-08T19:26:50.944Z,26.40
2018-09-08T19:29:24.995Z,26.30
2018-09-08T19:31:53.962Z,26.50
2018-09-08T19:34:22.757Z,26.50
2018-09-08T19:36:51.536Z,26.50
2018-09-08T19:39:20.311Z,26.70
2018-09-08T19:41:49.129Z,26.70
2018-09-08T19:44:18.076Z,26.70
2018-09-08T19:46:52.053Z,26.60
2018-09-08T19:49:20.904Z,26.70
2018-09-08T19:51:49.770Z,26.70
2018-09-08T19:54:18.763Z,26.50
2018-09-08T19:56:52.793Z,26.50
2018-09-08T19:59:21.604Z,26.60
2018-09-08T20:01:50.410Z,26.70
2018-09-08T20:04:19.255Z,26.60
2018-09-08T20:06:47.991Z,26.60
2018-09-08T20:09:16.954Z,26.50
2018-09-08T20:11:45.640Z,26.60
2018-09-08T20:14:14.493Z,26.60
2018-09-08T20:16:43.233Z,26.50
2018-09-08T20:19:12.068Z,26.50
2018-09-08T20:21:40.771Z,26.40
2018-09-08T20:24:09.746Z,26.50
2018-09-08T20:26:38.722Z,26.40
2018-09-08T20:29:07.522Z,26.30
2018-09-08T20:31:36.250Z,26.50
2018-09-08T20:34:05.011Z,26.50
2018-09-08T20:36:33.764Z,26.50
2018-09-08T20:39:02.784Z,26.50
2018-09-08T20:41:31.618Z,26.50
2018-09-08T20:44:00.566Z,26.50
2018-09-08T20:46:29.143Z,26.50
2018-09-08T20:48:57.836Z,26.50
2018-09-08T20:51:26.745Z,26.40
2018-09-08T20:53:55.627Z,26.40
2018-09-08T20:56:24.567Z,26.40
2018-09-08T20:58:53.310Z,26.50
2018-09-08T21:01:22.128Z,26.50
2018-09-08T21:03:50.843Z,26.50
2018-09-08T21:06:19.745Z,26.40
2018-09-08T21:08:48.572Z,26.20
2018-09-08T21:11:17.429Z,26.00
2018-09-08T21:13:46.178Z,26.00
2018-09-08T21:16:15.121Z,25.70
2018-09-08T21:18:43.962Z,25.50
2018-09-08T21:21:12.807Z,25.50
2018-09-08T21:23:41.704Z,25.60
2018-09-08T21:26:10.585Z,25.60
2018-09-08T21:28:39.266Z,25.60
2018-09-08T21:31:08.128Z,25.40
2018-09-08T21:33:36.946Z,25.30
2018-09-08T21:36:05.749Z,25.30
2018-09-08T21:38:34.649Z,25.30
2018-09-08T21:41:03.366Z,25.20
2018-09-08T21:43:32.211Z,25.20
2018-09-08T21:46:00.860Z,25.20
2018-09-08T21:48:29.652Z,24.90
2018-09-08T21:50:58.344Z,24.90
2018-09-08T21:53:27.130Z,24.70
2018-09-08T21:55:55.887Z,24.90
2018-09-08T21:58:24.929Z,25.00
2018-09-08T22:00:56.464Z,24.80
2018-09-08T22:03:26.547Z,24.70
2018-09-08T22:05:55.333Z,24.80
2018-09-08T22:08:24.260Z,24.70
2018-09-08T22:10:53.161Z,24.70
2018-09-08T22:13:22.056Z,24.70
2018-09-08T22:15:50.703Z,24.80
2018-09-08T22:18:19.436Z,24.90
2018-09-08T22:20:48.197Z,24.90
2018-09-08T22:23:16.937Z,25.00
2018-09-08T22:25:45.906Z,24.80
2018-09-08T22:28:14.921Z,24.70
2018-09-08T22:30:43.861Z,24.70
2018-09-08T22:33:12.566Z,24.30
2018-09-08T22:35:41.744Z,24.30
2018-09-08T22:38:10.833Z,24.30
2018-09-08T22:40:39.692Z,24.30
2018-09-08T22:43:08.624Z,24.40
2018-09-08T22:45:37.407Z,24.40
2018-09-08T22:48:06.239Z,24.30
2018-09-08T22:50:35.316Z,24.30
2018-09-08T22:53:04.048Z,24.20
2018-09-08T22:55:32.968Z,24.20
2018-09-08T22:58:01.712Z,24.20
2018-09-08T23:00:30.748Z,23.90
2018-09-08T23:02:59.450Z,23.90
2018-09-08T23:05:28.327Z,23.80
2018-09-08T23:07:57.091Z,23.80
2018-09-08T23:10:25.909Z,23.70
2018-09-08T23:12:54.544Z,23.70
2018-09-08T23:15:23.459Z,23.70
2018-09-08T23:17:52.227Z,23.70
2018-09-08T23:20:21.196Z,23.60
2018-09-08T23:22:49.936Z,23.60
2018-09-08T23:25:18.652Z,23.60
2018-09-08T23:27:47.443Z,23.60
2018-09-08T23:30:16.316Z,23.70
2018-09-08T23:32:45.107Z,23.70
2018-09-08T23:35:13.968Z,23.60
2018-09-08T23:37:42.976Z,23.60
2018-09-08T23:40:11.692Z,23.60
2018-09-08T23:42:40.658Z,23.50
2018-09-08T23:45:09.852Z,23.50
2018-09-08T23:47:38.628Z,23.40
2018-09-08T23:50:07.631Z,23.30
2018-09-08T23:52:36.488Z,23.50
2018-09-08T23:55:05.373Z,23.50
2018-09-08T23:57:34.466Z,23.40
